createdAt,value
2024-02-29T00:01:42.202Z,10.20
2024-02-29T00:04:10.387Z,10.20
2024-02-29T00:06:38.575Z,10.20
2024-02-29T00:09:06.932Z,10.20
2024-02-29T00:11:35.131Z,10.20
2024-02-29T00:14:03.542Z,10.20
2024-02-29T00:16:32.816Z,10.24
2024-02-29T00:19:00.949Z,10.30
2024-02-29T00:21:30.659Z,10.30
2024-02-29T00:23:58.826Z,10.30
2024-02-29T00:26:27.585Z,10.30
2024-02-29T00:28:55.893Z,10.20
2024-02-29T00:31:25.839Z,10.20
2024-02-29T00:33:54.160Z,10.10
2024-02-29T00:36:22.532Z,10.00
2024-02-29T00:38:58.799Z,10.00
2024-02-29T00:41:34.308Z,10.00
2024-02-29T00:44:02.482Z,9.94
2024-02-29T00:46:30.694Z,9.90
2024-02-29T00:48:59.197Z,9.90
2024-02-29T00:51:27.455Z,9.90
2024-02-29T00:53:55.735Z,9.84
2024-02-29T00:56:23.773Z,9.80
2024-02-29T00:58:52.380Z,9.80
2024-02-29T01:01:20.841Z,9.78
2024-02-29T01:03:49.226Z,9.72
2024-02-29T01:06:17.638Z,9.70
2024-02-29T01:08:46.070Z,9.64
2024-02-29T01:11:14.483Z,9.60
2024-02-29T01:13:42.925Z,9.60
2024-02-29T01:16:11.290Z,9.60
2024-02-29T01:18:41.492Z,9.50
2024-02-29T01:21:10.235Z,9.42
2024-02-29T01:23:38.360Z,9.40
2024-02-29T01:26:07.329Z,9.32
2024-02-29T01:28:35.759Z,9.32
2024-02-29T01:31:05.421Z,9.40
2024-02-29T01:33:33.738Z,9.30
2024-02-29T01:36:02.088Z,9.30
2024-02-29T01:38:30.098Z,9.30
2024-02-29T01:40:58.316Z,9.30
2024-02-29T01:43:26.418Z,9.30
2024-02-29T01:46:11.359Z,9.20
2024-02-29T01:48:40.064Z,9.08
2024-02-29T01:51:08.321Z,9.00
2024-02-29T01:53:36.882Z,9.00
2024-02-29T01:56:05.844Z,9.00
2024-02-29T01:58:35.263Z,9.00
2024-02-29T02:01:03.718Z,9.00
2024-02-29T02:03:32.072Z,9.00
2024-02-29T02:06:00.598Z,9.00
2024-02-29T02:08:31.451Z,9.10
2024-02-29T02:10:59.695Z,9.10
2024-02-29T02:13:28.100Z,9.00
2024-02-29T02:15:56.267Z,8.90
2024-02-29T02:18:24.573Z,8.90
2024-02-29T02:20:55.587Z,8.80
2024-02-29T02:23:23.683Z,8.60
2024-02-29T02:25:52.278Z,8.50
2024-02-29T02:28:20.412Z,8.36
2024-02-29T02:30:48.695Z,8.30
2024-02-29T02:33:17.008Z,8.20
2024-02-29T02:35:45.289Z,8.10
2024-02-29T02:38:14.028Z,8.10
2024-02-29T02:40:42.118Z,8.10
2024-02-29T02:43:10.440Z,8.00
2024-02-29T02:45:38.850Z,7.90
2024-02-29T02:48:07.654Z,7.80
2024-02-29T02:50:35.929Z,7.80
2024-02-29T02:53:05.583Z,7.70
2024-02-29T02:55:33.824Z,7.70
2024-02-29T02:58:02.098Z,7.66
2024-02-29T03:00:30.525Z,7.60
2024-02-29T03:03:00.869Z,7.60
2024-02-29T03:05:29.314Z,7.60
2024-02-29T03:07:57.543Z,7.60
2024-02-29T03:10:26.039Z,7.60
2024-02-29T03:12:54.427Z,7.52
2024-02-29T03:15:22.610Z,7.50
2024-02-29T03:17:50.906Z,7.50
2024-02-29T03:20:19.783Z,7.50
2024-02-29T03:22:48.048Z,7.50
2024-02-29T03:25:16.198Z,7.44
2024-02-29T03:27:44.706Z,7.48
2024-02-29T03:30:13.232Z,7.44
2024-02-29T03:32:41.564Z,7.40
2024-02-29T03:35:09.725Z,7.40
2024-02-29T03:37:38.403Z,7.40
2024-02-29T03:40:07.788Z,7.30
2024-02-29T03:42:36.061Z,7.20
2024-02-29T03:45:04.748Z,7.20
2024-02-29T03:47:33.144Z,7.20
2024-02-29T03:50:01.665Z,7.20
2024-02-29T03:52:29.810Z,7.20
2024-02-29T03:54:58.196Z,7.20
2024-02-29T03:57:26.350Z,7.18
2024-02-29T03:59:54.455Z,7.10
2024-02-29T04:02:23.986Z,7.08
2024-02-29T04:04:52.675Z,7.00
2024-02-29T04:07:22.251Z,6.90
2024-02-29T04:09:56.018Z,7.00
2024-02-29T04:12:24.617Z,7.00
2024-02-29T04:14:52.735Z,7.00
2024-02-29T04:17:20.931Z,7.00
2024-02-29T04:19:49.153Z,7.00
2024-02-29T04:22:17.536Z,7.00
2024-02-29T04:24:45.970Z,7.10
2024-02-29T04:27:14.410Z,7.10
2024-02-29T04:29:45.059Z,7.10
2024-02-29T04:32:13.337Z,7.20
2024-02-29T04:34:42.799Z,7.14
2024-02-29T04:37:10.906Z,7.10
2024-02-29T04:39:39.254Z,7.10
2024-02-29T04:42:08.750Z,7.04
2024-02-29T04:44:36.950Z,7.00
2024-02-29T04:47:06.246Z,7.00
2024-02-29T04:49:34.963Z,6.90
2024-02-29T04:52:04.058Z,6.90
2024-02-29T04:54:32.361Z,6.90
2024-02-29T04:57:00.697Z,6.80
2024-02-29T04:59:29.152Z,6.80
2024-02-29T05:01:57.426Z,6.80
2024-02-29T05:04:25.887Z,6.70
2024-02-29T05:06:57.611Z,6.62
2024-02-29T05:09:26.351Z,6.60
2024-02-29T05:11:57.391Z,6.50
2024-02-29T05:14:25.683Z,6.44
2024-02-29T05:16:53.848Z,6.40
2024-02-29T05:19:23.005Z,6.46
2024-02-29T05:21:52.966Z,6.44
2024-02-29T05:24:21.348Z,6.50
2024-02-29T05:26:49.530Z,6.58
2024-02-29T05:29:17.959Z,6.68
2024-02-29T05:31:51.433Z,6.72
2024-02-29T05:34:21.589Z,6.80
2024-02-29T05:36:49.919Z,6.80
2024-02-29T05:39:18.570Z,6.90
2024-02-29T05:41:46.861Z,6.90
2024-02-29T05:44:15.338Z,6.90
2024-02-29T05:46:44.456Z,7.00
2024-02-29T05:49:12.800Z,7.00
2024-02-29T05:51:41.227Z,7.10
2024-02-29T05:54:09.763Z,7.10
2024-02-29T05:56:38.360Z,7.18
2024-02-29T05:59:07.191Z,7.20
2024-02-29T06:01:35.688Z,7.30
2024-02-29T06:04:04.419Z,7.20
2024-02-29T06:06:33.324Z,7.20
2024-02-29T06:09:01.582Z,7.30
2024-02-29T06:11:29.779Z,7.30
2024-02-29T06:13:59.092Z,7.38
2024-02-29T06:16:28.964Z,7.40
2024-02-29T06:18:57.684Z,7.42
2024-02-29T06:21:26.133Z,7.50
2024-02-29T06:23:58.237Z,7.50
2024-02-29T06:26:26.674Z,7.60
2024-02-29T06:28:54.828Z,7.60
2024-02-29T06:31:26.892Z,7.66
2024-02-29T06:33:55.341Z,7.70
2024-02-29T06:36:23.769Z,7.80
2024-02-29T06:38:52.252Z,7.90
2024-02-29T06:41:20.424Z,8.10
2024-02-29T06:43:48.515Z,8.16
2024-02-29T06:46:17.019Z,8.28
2024-02-29T06:48:45.239Z,8.40
2024-02-29T06:51:13.548Z,8.56
2024-02-29T06:53:41.789Z,8.70
2024-02-29T06:56:09.926Z,8.94
2024-02-29T06:58:38.319Z,9.28
2024-02-29T07:01:07.688Z,9.90
2024-02-29T07:03:36.181Z,10.42
2024-02-29T07:06:05.537Z,10.84
2024-02-29T07:08:37.367Z,11.06
2024-02-29T07:11:05.929Z,11.30
2024-02-29T07:13:34.478Z,11.58
2024-02-29T07:16:04.285Z,11.98
2024-02-29T07:18:32.623Z,12.12
2024-02-29T07:21:01.274Z,12.40
2024-02-29T07:23:29.677Z,12.80
2024-02-29T07:25:57.822Z,13.10
2024-02-29T07:28:26.492Z,13.44
2024-02-29T07:30:55.126Z,13.40
2024-02-29T07:33:23.946Z,13.90
2024-02-29T07:35:52.153Z,14.14
2024-02-29T07:38:20.440Z,14.20
2024-02-29T07:40:49.002Z,14.36
2024-02-29T07:43:17.325Z,14.60
2024-02-29T07:45:45.777Z,14.92
2024-02-29T07:48:15.770Z,15.10
2024-02-29T07:50:44.339Z,15.20
2024-02-29T07:53:12.484Z,15.04
2024-02-29T07:55:41.116Z,15.08
2024-02-29T07:58:09.862Z,15.00
2024-02-29T08:00:39.176Z,14.90
2024-02-29T08:03:07.538Z,14.70
2024-02-29T08:05:36.215Z,14.18
2024-02-29T08:08:04.867Z,14.08
2024-02-29T08:10:33.256Z,13.88
2024-02-29T08:13:01.798Z,13.50
2024-02-29T08:15:30.244Z,13.20
2024-02-29T08:17:59.442Z,13.22
2024-02-29T08:20:27.748Z,13.06
2024-02-29T08:22:58.186Z,12.82
2024-02-29T08:25:27.842Z,12.70
2024-02-29T08:27:56.206Z,12.60
2024-02-29T08:30:24.365Z,12.70
2024-02-29T08:32:52.515Z,12.60
2024-02-29T08:35:20.877Z,12.70
2024-02-29T08:37:50.135Z,12.70
2024-02-29T08:40:18.530Z,12.60
2024-02-29T08:42:47.080Z,12.60
2024-02-29T08:45:15.189Z,12.60
2024-02-29T08:47:43.671Z,12.60
2024-02-29T08:50:12.046Z,12.50
2024-02-29T08:52:42.856Z,12.50
2024-02-29T08:55:11.367Z,12.60
2024-02-29T08:57:39.775Z,12.62
2024-02-29T09:00:09.068Z,12.70
2024-02-29T09:02:37.383Z,12.60
2024-02-29T09:05:06.453Z,12.60
2024-02-29T09:07:35.122Z,12.60
2024-02-29T09:10:03.979Z,12.60
2024-02-29T09:12:32.435Z,12.68
2024-02-29T09:15:03.018Z,12.64
2024-02-29T09:17:31.217Z,12.70
2024-02-29T09:19:59.493Z,12.76
2024-02-29T09:22:27.758Z,12.72
2024-02-29T09:24:55.927Z,12.70
2024-02-29T09:27:24.252Z,12.60
2024-02-29T09:29:52.461Z,12.70
2024-02-29T09:32:20.616Z,12.70
2024-02-29T09:34:52.103Z,12.80
2024-02-29T09:37:20.964Z,12.80
2024-02-29T09:39:49.381Z,12.80
2024-02-29T09:42:17.997Z,12.90
2024-02-29T09:44:47.157Z,12.90
2024-02-29T09:47:15.693Z,12.80
2024-02-29T09:49:48.907Z,12.92
2024-02-29T09:52:17.740Z,13.10
2024-02-29T09:54:47.169Z,12.96
2024-02-29T09:57:15.512Z,13.10
2024-02-29T09:59:44.202Z,13.20
2024-02-29T10:02:18.954Z,13.28
2024-02-29T10:04:47.791Z,13.30
2024-02-29T10:07:16.502Z,13.30
2024-02-29T10:09:45.571Z,13.30
2024-02-29T10:12:19.168Z,13.42
2024-02-29T10:14:47.915Z,13.50
2024-02-29T10:17:16.227Z,13.60
2024-02-29T10:19:44.350Z,13.60
2024-02-29T10:22:12.588Z,13.40
2024-02-29T10:24:41.085Z,13.52
2024-02-29T10:27:09.213Z,13.58
2024-02-29T10:29:37.517Z,13.60
2024-02-29T10:32:06.147Z,13.70
2024-02-29T10:34:35.975Z,13.80
2024-02-29T10:37:04.874Z,13.90
2024-02-29T10:39:34.078Z,14.00
2024-02-29T10:42:02.191Z,14.10
2024-02-29T10:44:31.800Z,14.20
2024-02-29T10:47:03.946Z,14.30
2024-02-29T10:49:35.002Z,14.40
2024-02-29T10:52:12.620Z,14.50
2024-02-29T10:55:07.306Z,14.60
2024-02-29T10:58:00.479Z,14.70
2024-02-29T11:00:28.708Z,14.80
2024-02-29T11:02:58.387Z,14.76
2024-02-29T11:05:26.835Z,14.70
2024-02-29T11:07:55.362Z,14.70
2024-02-29T11:10:23.669Z,14.78
2024-02-29T11:12:57.752Z,14.80
2024-02-29T11:15:27.780Z,14.80
2024-02-29T11:17:56.354Z,14.82
2024-02-29T11:20:25.762Z,14.90
2024-02-29T11:23:10.300Z,14.90
2024-02-29T11:25:44.010Z,15.00
2024-02-29T11:28:12.369Z,14.98
2024-02-29T11:30:42.539Z,15.00
2024-02-29T11:33:11.254Z,15.00
2024-02-29T11:35:39.800Z,15.00
2024-02-29T11:38:08.970Z,15.00
2024-02-29T11:40:37.362Z,15.10
2024-02-29T11:43:08.895Z,15.10
2024-02-29T11:45:39.098Z,15.20
2024-02-29T11:48:07.537Z,15.20
2024-02-29T11:50:36.091Z,15.28
2024-02-29T11:53:04.622Z,15.20
2024-02-29T11:55:32.829Z,15.24
2024-02-29T11:58:03.192Z,15.24
2024-02-29T12:00:31.617Z,15.24
2024-02-29T12:02:59.757Z,15.22
2024-02-29T12:05:28.114Z,15.30
2024-02-29T12:07:56.399Z,15.34
2024-02-29T12:10:25.000Z,15.30
2024-02-29T12:12:53.226Z,15.30
2024-02-29T12:15:21.393Z,15.30
2024-02-29T12:17:49.678Z,15.30
2024-02-29T12:20:18.544Z,15.30
2024-02-29T12:22:50.164Z,15.40
2024-02-29T12:25:21.007Z,15.40
2024-02-29T12:27:49.310Z,15.40
2024-02-29T12:30:19.247Z,15.40
2024-02-29T12:32:49.947Z,15.48
2024-02-29T12:35:19.331Z,15.40
2024-02-29T12:37:47.558Z,15.50
2024-02-29T12:40:16.045Z,15.50
2024-02-29T12:42:44.531Z,15.60
2024-02-29T12:45:16.039Z,15.60
2024-02-29T12:47:46.424Z,15.60
2024-02-29T12:50:14.815Z,15.70
2024-02-29T12:52:43.078Z,15.70
2024-02-29T12:55:11.572Z,15.70
2024-02-29T12:57:39.879Z,15.70
2024-02-29T13:00:09.039Z,15.70
2024-02-29T13:02:37.350Z,15.80
2024-02-29T13:05:06.527Z,15.70
2024-02-29T13:07:35.150Z,15.80
2024-02-29T13:10:04.425Z,15.80
2024-02-29T13:12:32.701Z,15.80
2024-02-29T13:15:01.389Z,15.80
2024-02-29T13:17:29.798Z,15.80
2024-02-29T13:19:58.338Z,15.72
2024-02-29T13:22:26.530Z,15.80
2024-02-29T13:24:54.769Z,15.70
2024-02-29T13:27:23.315Z,15.70
2024-02-29T13:29:51.367Z,15.60
2024-02-29T13:32:19.726Z,15.52
2024-02-29T13:34:47.916Z,15.60
2024-02-29T13:37:17.418Z,15.60
2024-02-29T13:39:47.865Z,15.60
2024-02-29T13:42:16.189Z,15.60
2024-02-29T13:44:46.643Z,15.60
2024-02-29T13:47:15.100Z,15.50
2024-02-29T13:49:43.676Z,15.50
2024-02-29T13:52:18.266Z,15.46
2024-02-29T13:54:47.112Z,15.40
2024-02-29T13:57:15.442Z,15.42
2024-02-29T13:59:43.952Z,15.40
2024-02-29T14:02:13.406Z,15.44
2024-02-29T14:04:41.900Z,15.42
2024-02-29T14:07:10.205Z,15.42
2024-02-29T14:09:39.473Z,15.40
2024-02-29T14:12:08.054Z,15.30
2024-02-29T14:14:36.282Z,15.30
2024-02-29T14:17:04.670Z,15.30
2024-02-29T14:19:33.527Z,15.20
2024-02-29T14:22:02.195Z,15.18
2024-02-29T14:24:30.621Z,15.20
2024-02-29T14:26:58.861Z,15.10
2024-02-29T14:29:27.092Z,15.06
2024-02-29T14:31:55.502Z,15.08
2024-02-29T14:34:23.723Z,15.00
2024-02-29T14:36:52.474Z,15.00
2024-02-29T14:39:21.343Z,15.00
2024-02-29T14:41:49.586Z,14.96
2024-02-29T14:44:18.077Z,14.90
2024-02-29T14:46:46.647Z,14.88
2024-02-29T14:49:15.670Z,14.80
2024-02-29T14:51:44.356Z,14.80
2024-02-29T14:54:12.775Z,14.80
2024-02-29T14:56:41.531Z,14.80
2024-02-29T14:59:09.785Z,14.80
2024-02-29T15:01:38.118Z,14.80
2024-02-29T15:04:06.381Z,14.70
2024-02-29T15:06:38.090Z,14.70
2024-02-29T15:09:06.202Z,14.60
2024-02-29T15:11:34.317Z,14.58
2024-02-29T15:14:02.450Z,14.50
2024-02-29T15:16:31.225Z,14.50
2024-02-29T15:18:59.724Z,14.50
2024-02-29T15:21:28.015Z,14.50
2024-02-29T15:23:57.579Z,14.40
2024-02-29T15:26:25.886Z,14.40
2024-02-29T15:28:54.307Z,14.30
2024-02-29T15:31:22.728Z,14.20
2024-02-29T15:33:51.600Z,14.20
2024-02-29T15:36:19.969Z,14.00
2024-02-29T15:38:48.071Z,13.90
2024-02-29T15:41:16.258Z,13.90
2024-02-29T15:43:44.338Z,13.90
2024-02-29T15:46:13.017Z,13.90
2024-02-29T15:48:41.626Z,13.82
2024-02-29T15:51:10.148Z,13.74
2024-02-29T15:53:38.715Z,13.70
2024-02-29T15:56:07.248Z,13.70
2024-02-29T15:58:35.515Z,13.60
2024-02-29T16:01:03.891Z,13.60
2024-02-29T16:03:32.097Z,13.60
2024-02-29T16:06:00.239Z,13.60
2024-02-29T16:08:28.527Z,13.62
2024-02-29T16:10:56.874Z,13.60
2024-02-29T16:13:25.774Z,13.50
2024-02-29T16:15:54.174Z,13.44
2024-02-29T16:18:22.233Z,13.40
2024-02-29T16:20:52.568Z,13.38
2024-02-29T16:23:20.620Z,13.30
2024-02-29T16:25:48.817Z,13.20
2024-02-29T16:28:18.766Z,13.20
2024-02-29T16:30:47.006Z,13.10
2024-02-29T16:33:15.139Z,13.10
2024-02-29T16:35:43.237Z,12.96
2024-02-29T16:38:11.394Z,12.90
2024-02-29T16:40:39.609Z,12.80
2024-02-29T16:43:07.965Z,12.70
2024-02-29T16:45:36.386Z,12.60
2024-02-29T16:48:05.214Z,12.50
2024-02-29T16:50:33.413Z,12.42
2024-02-29T16:53:01.518Z,12.40
2024-02-29T16:55:29.680Z,12.30
2024-02-29T16:57:58.128Z,12.20
2024-02-29T17:00:26.474Z,12.20
2024-02-29T17:02:54.737Z,12.20
2024-02-29T17:05:22.838Z,12.10
2024-02-29T17:07:51.062Z,12.10
2024-02-29T17:10:19.359Z,12.00
2024-02-29T17:12:47.500Z,12.00
2024-02-29T17:15:15.769Z,11.92
2024-02-29T17:17:44.227Z,11.80
2024-02-29T17:20:12.598Z,11.72
2024-02-29T17:22:41.080Z,11.70
2024-02-29T17:25:09.769Z,11.70
2024-02-29T17:27:38.154Z,11.60
2024-02-29T17:30:08.356Z,11.50
2024-02-29T17:32:36.501Z,11.50
2024-02-29T17:35:06.311Z,11.60
2024-02-29T17:37:34.461Z,11.50
2024-02-29T17:40:02.620Z,11.50
2024-02-29T17:42:30.956Z,11.50
2024-02-29T17:44:59.097Z,11.46
2024-02-29T17:47:27.327Z,11.40
2024-02-29T17:49:55.425Z,11.40
2024-02-29T17:52:23.629Z,11.40
2024-02-29T17:54:52.111Z,11.40
2024-02-29T17:57:20.357Z,11.30
2024-02-29T17:59:48.483Z,11.20
2024-02-29T18:02:16.908Z,11.06
2024-02-29T18:04:47.254Z,10.90
2024-02-29T18:07:15.594Z,10.90
2024-02-29T18:09:44.013Z,10.80
2024-02-29T18:12:12.657Z,10.80
2024-02-29T18:14:41.242Z,10.80
2024-02-29T18:17:10.447Z,10.70
2024-02-29T18:19:39.122Z,10.70
2024-02-29T18:22:07.620Z,10.60
2024-02-29T18:24:39.306Z,10.50
2024-02-29T18:27:09.171Z,10.48
2024-02-29T18:29:37.367Z,10.50
2024-02-29T18:32:06.580Z,10.50
2024-02-29T18:34:34.841Z,10.40
2024-02-29T18:37:03.185Z,10.40
2024-02-29T18:39:31.333Z,10.50
2024-02-29T18:41:59.682Z,10.50
2024-02-29T18:44:27.809Z,10.50
2024-02-29T18:46:56.306Z,10.40
2024-02-29T18:49:25.111Z,10.38
2024-02-29T18:51:53.402Z,10.30
2024-02-29T18:54:21.494Z,10.30
2024-02-29T18:56:49.784Z,10.30
2024-02-29T18:59:18.453Z,10.30
2024-02-29T19:01:46.990Z,10.30
2024-02-29T19:04:18.641Z,10.30
2024-02-29T19:06:49.931Z,10.32
2024-02-29T19:09:18.192Z,10.32
2024-02-29T19:11:46.832Z,10.28
2024-02-29T19:14:15.651Z,10.20
2024-02-29T19:16:43.988Z,10.20
2024-02-29T19:19:15.172Z,10.10
2024-02-29T19:21:43.467Z,10.08
2024-02-29T19:24:12.682Z,10.02
2024-02-29T19:26:41.011Z,10.08
2024-02-29T19:29:09.406Z,10.10
2024-02-29T19:31:37.525Z,10.10
2024-02-29T19:34:05.869Z,10.12
2024-02-29T19:36:34.245Z,10.20
2024-02-29T19:39:02.519Z,10.30
2024-02-29T19:41:30.832Z,10.40
2024-02-29T19:43:59.012Z,10.50
2024-02-29T19:46:28.841Z,10.60
2024-02-29T19:48:57.264Z,10.70
2024-02-29T19:51:26.079Z,10.80
2024-02-29T19:53:54.333Z,10.80
2024-02-29T19:56:22.730Z,10.80
2024-02-29T19:58:50.912Z,10.90
2024-02-29T20:01:19.299Z,10.90
2024-02-29T20:03:47.829Z,10.90
2024-02-29T20:06:16.439Z,10.80
2024-02-29T20:08:44.732Z,10.74
2024-02-29T20:11:13.216Z,10.70
2024-02-29T20:13:41.621Z,10.60
2024-02-29T20:16:10.144Z,10.60
2024-02-29T20:18:38.925Z,10.60
2024-02-29T20:21:07.668Z,10.50
2024-02-29T20:23:35.873Z,10.50
2024-02-29T20:26:05.006Z,10.50
2024-02-29T20:28:33.328Z,10.40
2024-02-29T20:31:02.738Z,10.40
2024-02-29T20:33:30.934Z,10.30
2024-02-29T20:35:59.034Z,10.20
2024-02-29T20:38:27.203Z,10.10
2024-02-29T20:40:55.539Z,10.10
2024-02-29T20:43:23.727Z,10.10
2024-02-29T20:45:52.571Z,10.10
2024-02-29T20:48:20.793Z,10.10
2024-02-29T20:50:49.144Z,10.10
2024-02-29T20:53:17.568Z,10.10
2024-02-29T20:55:45.752Z,10.12
2024-02-29T20:58:15.932Z,10.10
2024-02-29T21:00:44.476Z,10.10
2024-02-29T21:03:12.924Z,10.10
2024-02-29T21:05:41.317Z,10.10
2024-02-29T21:08:09.793Z,10.10
2024-02-29T21:10:38.349Z,10.00
2024-02-29T21:13:06.589Z,10.00
2024-02-29T21:15:34.791Z,9.90
2024-02-29T21:18:04.167Z,9.84
2024-02-29T21:20:32.400Z,9.80
2024-02-29T21:23:01.107Z,9.72
2024-02-29T21:25:30.442Z,9.70
2024-02-29T21:27:59.245Z,9.70
2024-02-29T21:30:27.309Z,9.70
2024-02-29T21:32:55.819Z,9.60
2024-02-29T21:35:24.176Z,9.60
2024-02-29T21:37:52.791Z,9.60
2024-02-29T21:40:21.344Z,9.60
2024-02-29T21:42:52.111Z,9.70
2024-02-29T21:45:21.349Z,9.60
2024-02-29T21:47:49.691Z,9.50
2024-02-29T21:50:18.135Z,9.50
2024-02-29T21:52:46.426Z,9.50
2024-02-29T21:55:16.748Z,9.60
2024-02-29T21:57:45.115Z,9.60
2024-02-29T22:00:15.064Z,9.60
2024-02-29T22:02:43.654Z,9.60
2024-02-29T22:05:13.347Z,9.60
2024-02-29T22:07:41.963Z,9.60
2024-02-29T22:10:11.343Z,9.60
2024-02-29T22:12:39.742Z,9.60
2024-02-29T22:15:09.165Z,9.60
2024-02-29T22:17:38.276Z,9.50
2024-02-29T22:20:08.018Z,9.50
2024-02-29T22:22:36.825Z,9.50
2024-02-29T22:25:05.894Z,9.58
2024-02-29T22:27:34.088Z,9.60
2024-02-29T22:30:02.177Z,9.50
2024-02-29T22:32:30.439Z,9.40
2024-02-29T22:34:59.123Z,9.40
2024-02-29T22:37:27.585Z,9.30
2024-02-29T22:39:56.941Z,9.20
2024-02-29T22:42:25.445Z,9.10
2024-02-29T22:44:54.282Z,9.10
2024-02-29T22:47:22.566Z,9.00
2024-02-29T22:49:50.642Z,8.90
2024-02-29T22:52:18.824Z,8.90
2024-02-29T22:54:47.293Z,8.82
2024-02-29T22:57:15.863Z,8.80
2024-02-29T22:59:44.063Z,8.70
2024-02-29T23:02:12.209Z,8.70
2024-02-29T23:04:40.408Z,8.70
2024-02-29T23:07:09.280Z,8.70
2024-02-29T23:09:37.602Z,8.70
2024-02-29T23:12:06.097Z,8.70
2024-02-29T23:14:34.401Z,8.60
2024-02-29T23:17:03.318Z,8.52
2024-02-29T23:19:31.818Z,8.40
2024-02-29T23:22:00.843Z,8.40
2024-02-29T23:24:28.936Z,8.22
2024-02-29T23:26:57.007Z,8.20
2024-02-29T23:29:25.055Z,8.10
2024-02-29T23:31:53.374Z,8.02
2024-02-29T23:34:22.578Z,8.02
2024-02-29T23:36:51.834Z,8.00
2024-02-29T23:39:20.403Z,8.06
2024-02-29T23:41:48.736Z,8.00
2024-02-29T23:44:16.953Z,8.00
2024-02-29T23:46:45.307Z,8.00
2024-02-29T23:49:14.778Z,7.98
2024-02-29T23:51:43.398Z,8.00
2024-02-29T23:54:11.888Z,8.00
2024-02-29T23:56:40.111Z,8.00
2024-02-29T23:59:08.436Z,8.00
